sensor_id;sensor_type;location;lat;lon;timestamp;pressure;altitude;pressure_sealevel;temperature;humidity
77212;BME280;66206;0.000;0.000;2023-09-19T00:00:43;97377.80;;;25.96;35.85
77212;BME280;66206;0.000;0.000;2023-09-19T00:03:10;97378.91;;;26.07;35.78
77212;BME280;66206;0.000;0.000;2023-09-19T00:05:37;97379.40;;;26.04;35.70
77212;BME280;66206;0.000;0.000;2023-09-19T00:08:05;97384.70;;;25.69;35.87
77212;BME280;66206;0.000;0.000;2023-09-19T00:10:33;97380.66;;;25.94;35.81
77212;BME280;66206;0.000;0.000;2023-09-19T00:13:00;97382.50;;;25.96;35.60
77212;BME280;66206;0.000;0.000;2023-09-19T00:15:27;97382.37;;;25.94;35.62
77212;BME280;66206;0.000;0.000;2023-09-19T00:17:54;97384.42;;;25.69;35.83
77212;BME280;66206;0.000;0.000;2023-09-19T00:20:21;97382.70;;;25.81;35.76
77212;BME280;66206;0.000;0.000;2023-09-19T00:22:48;97383.29;;;26.05;35.58
77212;BME280;66206;0.000;0.000;2023-09-19T00:25:15;97386.20;;;25.99;35.49
77212;BME280;66206;0.000;0.000;2023-09-19T00:27:42;97383.63;;;26.16;35.38
77212;BME280;66206;0.000;0.000;2023-09-19T00:30:11;97387.27;;;25.98;35.37
77212;BME280;66206;0.000;0.000;2023-09-19T00:32:38;97395.76;;;26.05;35.40
77212;BME280;66206;0.000;0.000;2023-09-19T00:35:06;97395.70;;;26.02;35.39
77212;BME280;66206;0.000;0.000;2023-09-19T00:37:33;97394.31;;;26.09;35.25
77212;BME280;66206;0.000;0.000;2023-09-19T00:39:59;97396.68;;;26.04;35.29
77212;BME280;66206;0.000;0.000;2023-09-19T00:42:26;97405.01;;;25.97;35.37
77212;BME280;66206;0.000;0.000;2023-09-19T00:44:53;97409.09;;;25.90;35.39
77212;BME280;66206;0.000;0.000;2023-09-19T00:47:20;97409.85;;;26.03;35.33
77212;BME280;66206;0.000;0.000;2023-09-19T00:49:47;97411.07;;;25.94;35.33
77212;BME280;66206;0.000;0.000;2023-09-19T00:52:14;97415.28;;;25.93;35.32
77212;BME280;66206;0.000;0.000;2023-09-19T00:54:42;97417.68;;;26.03;35.28
77212;BME280;66206;0.000;0.000;2023-09-19T00:57:09;97415.59;;;25.98;35.24
77212;BME280;66206;0.000;0.000;2023-09-19T00:59:36;97419.87;;;25.76;35.43
77212;BME280;66206;0.000;0.000;2023-09-19T01:02:03;97425.85;;;25.82;35.43
77212;BME280;66206;0.000;0.000;2023-09-19T01:04:30;97426.16;;;25.82;35.41
77212;BME280;66206;0.000;0.000;2023-09-19T01:06:57;97427.22;;;26.00;35.18
77212;BME280;66206;0.000;0.000;2023-09-19T01:09:24;97430.62;;;25.93;35.26
77212;BME280;66206;0.000;0.000;2023-09-19T01:11:51;97429.17;;;25.66;35.42
77212;BME280;66206;0.000;0.000;2023-09-19T01:14:23;97428.27;;;25.58;35.50
77212;BME280;66206;0.000;0.000;2023-09-19T01:16:52;97429.07;;;25.81;35.22
77212;BME280;66206;0.000;0.000;2023-09-19T01:19:23;97434.27;;;25.83;35.19
77212;BME280;66206;0.000;0.000;2023-09-19T01:21:52;97433.18;;;25.73;35.25
77212;BME280;66206;0.000;0.000;2023-09-19T01:24:19;97430.26;;;25.69;35.04
77212;BME280;66206;0.000;0.000;2023-09-19T01:26:45;97426.60;;;25.64;34.73
77212;BME280;66206;0.000;0.000;2023-09-19T01:29:12;97429.40;;;25.78;34.45
77212;BME280;66206;0.000;0.000;2023-09-19T01:31:34;97436.13;;;25.96;34.31
77212;BME280;66206;0.000;0.000;2023-09-19T01:34:04;97442.13;;;26.03;34.43
77212;BME280;66206;0.000;0.000;2023-09-19T01:38:08;97444.98;;;25.83;34.69
77212;BME280;66206;0.000;0.000;2023-09-19T01:39:32;97444.70;;;25.95;34.68
77212;BME280;66206;0.000;0.000;2023-09-19T01:42:03;97440.51;;;25.88;34.65
77212;BME280;66206;0.000;0.000;2023-09-19T01:44:25;97437.50;;;25.97;34.72
77212;BME280;66206;0.000;0.000;2023-09-19T01:46:50;97435.93;;;25.88;34.79
77212;BME280;66206;0.000;0.000;2023-09-19T01:49:22;97432.99;;;25.95;34.76
77212;BME280;66206;0.000;0.000;2023-09-19T01:51:46;97435.84;;;26.03;34.71
77212;BME280;66206;0.000;0.000;2023-09-19T01:54:11;97434.89;;;25.90;34.78
77212;BME280;66206;0.000;0.000;2023-09-19T01:56:40;97435.84;;;25.94;34.71
77212;BME280;66206;0.000;0.000;2023-09-19T01:59:06;97432.91;;;26.00;34.74
77212;BME280;66206;0.000;0.000;2023-09-19T02:01:34;97436.00;;;25.77;34.78
77212;BME280;66206;0.000;0.000;2023-09-19T02:04:01;97436.25;;;25.94;34.53
77212;BME280;66206;0.000;0.000;2023-09-19T02:06:28;97444.87;;;25.74;34.72
77212;BME280;66206;0.000;0.000;2023-09-19T02:08:55;97443.51;;;25.68;34.46
77212;BME280;66206;0.000;0.000;2023-09-19T02:11:22;97444.26;;;25.87;34.51
77212;BME280;66206;0.000;0.000;2023-09-19T02:13:49;97446.71;;;25.77;34.57
77212;BME280;66206;0.000;0.000;2023-09-19T02:16:16;97445.40;;;25.75;34.53
77212;BME280;66206;0.000;0.000;2023-09-19T02:18:43;97447.28;;;25.72;34.49
77212;BME280;66206;0.000;0.000;2023-09-19T02:21:10;97447.43;;;25.71;34.30
77212;BME280;66206;0.000;0.000;2023-09-19T02:23:37;97447.27;;;25.87;34.23
77212;BME280;66206;0.000;0.000;2023-09-19T02:26:04;97449.57;;;25.71;34.22
77212;BME280;66206;0.000;0.000;2023-09-19T02:28:32;97448.34;;;25.71;34.25
77212;BME280;66206;0.000;0.000;2023-09-19T02:30:59;97453.06;;;25.78;34.02
77212;BME280;66206;0.000;0.000;2023-09-19T02:33:26;97451.36;;;25.69;34.28
77212;BME280;66206;0.000;0.000;2023-09-19T02:35:54;97455.58;;;25.91;34.13
77212;BME280;66206;0.000;0.000;2023-09-19T02:38:21;97460.23;;;25.57;34.47
77212;BME280;66206;0.000;0.000;2023-09-19T02:40:48;97463.44;;;25.67;34.19
77212;BME280;66206;0.000;0.000;2023-09-19T02:43:15;97464.63;;;25.44;34.43
77212;BME280;66206;0.000;0.000;2023-09-19T02:45:42;97468.42;;;25.55;34.41
77212;BME280;66206;0.000;0.000;2023-09-19T02:48:09;97469.19;;;25.47;34.30
77212;BME280;66206;0.000;0.000;2023-09-19T02:50:36;97471.45;;;25.58;34.40
77212;BME280;66206;0.000;0.000;2023-09-19T02:53:03;97477.15;;;25.55;34.33
77212;BME280;66206;0.000;0.000;2023-09-19T02:55:30;97476.84;;;25.60;34.08
77212;BME280;66206;0.000;0.000;2023-09-19T02:57:57;97478.29;;;25.67;34.06
77212;BME280;66206;0.000;0.000;2023-09-19T03:00:24;97480.86;;;25.62;34.12
77212;BME280;66206;0.000;0.000;2023-09-19T03:02:53;97480.15;;;25.63;34.02
77212;BME280;66206;0.000;0.000;2023-09-19T03:05:21;97482.24;;;25.48;34.11
77212;BME280;66206;0.000;0.000;2023-09-19T03:07:48;97484.91;;;25.59;34.10
77212;BME280;66206;0.000;0.000;2023-09-19T03:10:15;97489.59;;;25.75;34.16
77212;BME280;66206;0.000;0.000;2023-09-19T03:12:42;97491.18;;;25.48;34.14
77212;BME280;66206;0.000;0.000;2023-09-19T03:15:09;97494.71;;;25.56;34.08
77212;BME280;66206;0.000;0.000;2023-09-19T03:17:36;97497.14;;;25.58;34.27
77212;BME280;66206;0.000;0.000;2023-09-19T03:20:03;97498.22;;;25.51;34.17
77212;BME280;66206;0.000;0.000;2023-09-19T03:22:30;97495.68;;;25.36;34.29
77212;BME280;66206;0.000;0.000;2023-09-19T03:24:57;97492.48;;;25.71;33.89
77212;BME280;66206;0.000;0.000;2023-09-19T03:27:24;97490.69;;;25.59;34.17
77212;BME280;66206;0.000;0.000;2023-09-19T03:29:51;97493.41;;;25.27;34.48
77212;BME280;66206;0.000;0.000;2023-09-19T03:32:18;97494.31;;;25.05;34.72
77212;BME280;66206;0.000;0.000;2023-09-19T03:34:44;97495.05;;;25.45;34.29
77212;BME280;66206;0.000;0.000;2023-09-19T03:37:11;97499.24;;;25.50;34.35
77212;BME280;66206;0.000;0.000;2023-09-19T03:39:38;97501.53;;;25.06;34.65
77212;BME280;66206;0.000;0.000;2023-09-19T03:42:05;97501.90;;;25.37;34.41
77212;BME280;66206;0.000;0.000;2023-09-19T03:44:32;97504.26;;;25.17;34.75
77212;BME280;66206;0.000;0.000;2023-09-19T03:46:59;97503.59;;;25.12;34.73
77212;BME280;66206;0.000;0.000;2023-09-19T03:49:26;97504.57;;;25.14;34.57
77212;BME280;66206;0.000;0.000;2023-09-19T03:51:53;97502.30;;;25.25;34.53
77212;BME280;66206;0.000;0.000;2023-09-19T03:54:20;97498.24;;;25.43;34.34
77212;BME280;66206;0.000;0.000;2023-09-19T03:56:47;97498.17;;;25.40;34.35
77212;BME280;66206;0.000;0.000;2023-09-19T03:59:14;97498.07;;;25.36;34.39
77212;BME280;66206;0.000;0.000;2023-09-19T04:01:41;97502.10;;;25.46;34.14
77212;BME280;66206;0.000;0.000;2023-09-19T04:04:08;97505.76;;;25.29;34.41
77212;BME280;66206;0.000;0.000;2023-09-19T04:06:34;97506.95;;;25.56;34.20
77212;BME280;66206;0.000;0.000;2023-09-19T04:09:02;97512.08;;;25.17;34.51
77212;BME280;66206;0.000;0.000;2023-09-19T04:11:29;97516.51;;;25.43;34.32
77212;BME280;66206;0.000;0.000;2023-09-19T04:13:56;97517.77;;;25.42;34.38
77212;BME280;66206;0.000;0.000;2023-09-19T04:16:23;97520.02;;;25.24;34.46
77212;BME280;66206;0.000;0.000;2023-09-19T04:18:50;97522.20;;;25.43;34.36
77212;BME280;66206;0.000;0.000;2023-09-19T04:21:16;97520.80;;;25.39;34.30
77212;BME280;66206;0.000;0.000;2023-09-19T04:23:43;97523.73;;;25.44;34.36
77212;BME280;66206;0.000;0.000;2023-09-19T04:26:10;97527.98;;;25.51;34.24
77212;BME280;66206;0.000;0.000;2023-09-19T04:28:37;97530.07;;;25.37;34.37
77212;BME280;66206;0.000;0.000;2023-09-19T04:31:04;97530.76;;;25.39;34.36
77212;BME280;66206;0.000;0.000;2023-09-19T04:33:31;97533.87;;;25.02;34.65
77212;BME280;66206;0.000;0.000;2023-09-19T04:35:58;97534.95;;;25.45;34.25
77212;BME280;66206;0.000;0.000;2023-09-19T04:38:25;97539.81;;;25.54;34.23
77212;BME280;66206;0.000;0.000;2023-09-19T04:40:56;97541.75;;;25.48;34.24
77212;BME280;66206;0.000;0.000;2023-09-19T04:43:18;97544.91;;;25.32;34.17
77212;BME280;66206;0.000;0.000;2023-09-19T04:45:45;97544.38;;;25.33;34.35
77212;BME280;66206;0.000;0.000;2023-09-19T04:48:11;97544.71;;;25.67;34.21
77212;BME280;66206;0.000;0.000;2023-09-19T04:50:38;97543.61;;;25.65;34.23
77212;BME280;66206;0.000;0.000;2023-09-19T04:53:05;97546.92;;;25.36;34.44
77212;BME280;66206;0.000;0.000;2023-09-19T04:55:32;97550.82;;;25.48;34.42
77212;BME280;66206;0.000;0.000;2023-09-19T04:57:59;97553.25;;;25.34;34.40
77212;BME280;66206;0.000;0.000;2023-09-19T05:00:26;97552.15;;;25.44;34.35
77212;BME280;66206;0.000;0.000;2023-09-19T05:02:54;97554.37;;;25.39;34.41
77212;BME280;66206;0.000;0.000;2023-09-19T05:05:21;97552.08;;;25.34;34.36
77212;BME280;66206;0.000;0.000;2023-09-19T05:07:49;97553.15;;;25.53;34.37
77212;BME280;66206;0.000;0.000;2023-09-19T05:10:16;97557.98;;;25.29;34.48
77212;BME280;66206;0.000;0.000;2023-09-19T05:12:43;97560.37;;;25.60;34.20
77212;BME280;66206;0.000;0.000;2023-09-19T05:15:09;97565.78;;;25.37;34.47
77212;BME280;66206;0.000;0.000;2023-09-19T05:17:36;97565.85;;;25.45;34.42
77212;BME280;66206;0.000;0.000;2023-09-19T05:20:04;97566.18;;;25.47;34.38
77212;BME280;66206;0.000;0.000;2023-09-19T05:22:31;97566.89;;;25.39;34.48
77212;BME280;66206;0.000;0.000;2023-09-19T05:24:58;97564.99;;;25.37;34.57
77212;BME280;66206;0.000;0.000;2023-09-19T05:27:25;97564.10;;;25.28;34.70
77212;BME280;66206;0.000;0.000;2023-09-19T05:29:51;97564.33;;;25.16;34.64
77212;BME280;66206;0.000;0.000;2023-09-19T05:32:18;97567.90;;;25.27;34.51
77212;BME280;66206;0.000;0.000;2023-09-19T05:34:45;97568.49;;;25.37;34.38
77212;BME280;66206;0.000;0.000;2023-09-19T05:37:12;97574.26;;;25.35;34.38
77212;BME280;66206;0.000;0.000;2023-09-19T05:39:39;97572.44;;;25.38;34.32
77212;BME280;66206;0.000;0.000;2023-09-19T05:42:06;97575.74;;;25.41;34.36
77212;BME280;66206;0.000;0.000;2023-09-19T05:44:33;97580.71;;;25.31;34.35
77212;BME280;66206;0.000;0.000;2023-09-19T05:47:00;97585.69;;;25.37;34.33
77212;BME280;66206;0.000;0.000;2023-09-19T05:49:26;97589.71;;;25.55;34.26
77212;BME280;66206;0.000;0.000;2023-09-19T05:51:53;97595.04;;;25.30;34.33
77212;BME280;66206;0.000;0.000;2023-09-19T05:54:20;97595.67;;;25.51;34.33
77212;BME280;66206;0.000;0.000;2023-09-19T05:56:47;97597.21;;;25.42;34.28
77212;BME280;66206;0.000;0.000;2023-09-19T05:59:14;97600.40;;;25.56;34.09
77212;BME280;66206;0.000;0.000;2023-09-19T06:01:41;97610.93;;;25.36;34.43
77212;BME280;66206;0.000;0.000;2023-09-19T06:04:08;97617.87;;;25.54;34.44
77212;BME280;66206;0.000;0.000;2023-09-19T06:06:35;97620.52;;;25.31;34.50
77212;BME280;66206;0.000;0.000;2023-09-19T06:09:02;97620.67;;;25.36;34.50
77212;BME280;66206;0.000;0.000;2023-09-19T06:11:29;97622.57;;;25.40;34.63
77212;BME280;66206;0.000;0.000;2023-09-19T06:13:56;97624.10;;;25.21;34.73
77212;BME280;66206;0.000;0.000;2023-09-19T06:16:23;97624.72;;;25.24;34.71
77212;BME280;66206;0.000;0.000;2023-09-19T06:18:50;97628.99;;;25.40;34.50
77212;BME280;66206;0.000;0.000;2023-09-19T06:21:17;97634.03;;;25.13;34.67
77212;BME280;66206;0.000;0.000;2023-09-19T06:23:44;97634.90;;;25.32;34.70
77212;BME280;66206;0.000;0.000;2023-09-19T06:26:11;97638.14;;;25.08;34.82
77212;BME280;66206;0.000;0.000;2023-09-19T06:28:38;97640.60;;;25.14;34.80
77212;BME280;66206;0.000;0.000;2023-09-19T06:31:04;97643.45;;;25.12;34.76
77212;BME280;66206;0.000;0.000;2023-09-19T06:33:31;97647.68;;;25.26;34.63
77212;BME280;66206;0.000;0.000;2023-09-19T06:35:58;97648.67;;;25.10;34.88
77212;BME280;66206;0.000;0.000;2023-09-19T06:38:25;97646.06;;;25.40;34.57
77212;BME280;66206;0.000;0.000;2023-09-19T06:40:52;97648.58;;;25.34;34.60
77212;BME280;66206;0.000;0.000;2023-09-19T06:43:19;97646.04;;;25.33;34.62
77212;BME280;66206;0.000;0.000;2023-09-19T06:45:46;97647.86;;;25.15;34.74
77212;BME280;66206;0.000;0.000;2023-09-19T06:48:13;97642.41;;;25.21;34.73
77212;BME280;66206;0.000;0.000;2023-09-19T06:50:40;97643.00;;;25.25;34.61
77212;BME280;66206;0.000;0.000;2023-09-19T06:53:07;97645.62;;;25.03;34.79
77212;BME280;66206;0.000;0.000;2023-09-19T06:55:34;97649.31;;;25.23;34.59
77212;BME280;66206;0.000;0.000;2023-09-19T06:58:01;97650.49;;;25.28;34.40
77212;BME280;66206;0.000;0.000;2023-09-19T07:00:28;97649.85;;;25.25;34.43
77212;BME280;66206;0.000;0.000;2023-09-19T07:02:55;97649.66;;;25.06;34.68
77212;BME280;66206;0.000;0.000;2023-09-19T07:05:22;97665.37;;;24.96;34.71
77212;BME280;66206;0.000;0.000;2023-09-19T07:07:49;97666.36;;;25.26;34.47
77212;BME280;66206;0.000;0.000;2023-09-19T07:10:16;97668.15;;;24.97;34.18
77212;BME280;66206;0.000;0.000;2023-09-19T07:12:43;97672.81;;;24.79;33.99
77212;BME280;66206;0.000;0.000;2023-09-19T07:15:10;97677.36;;;24.79;33.85
77212;BME280;66206;0.000;0.000;2023-09-19T07:17:37;97678.57;;;25.01;33.21
77212;BME280;66206;0.000;0.000;2023-09-19T07:20:04;97679.58;;;25.02;33.12
77212;BME280;66206;0.000;0.000;2023-09-19T07:22:31;97679.79;;;24.97;32.58
77212;BME280;66206;0.000;0.000;2023-09-19T07:24:58;97680.57;;;24.71;33.32
77212;BME280;66206;0.000;0.000;2023-09-19T07:27:25;97679.12;;;25.01;32.78
77212;BME280;66206;0.000;0.000;2023-09-19T07:29:52;97681.07;;;24.90;32.71
77212;BME280;66206;0.000;0.000;2023-09-19T07:32:19;97684.90;;;25.02;32.21
77212;BME280;66206;0.000;0.000;2023-09-19T07:34:46;97685.54;;;25.10;32.16
77212;BME280;66206;0.000;0.000;2023-09-19T07:37:13;97690.23;;;24.98;32.00
77212;BME280;66206;0.000;0.000;2023-09-19T07:39:39;97688.83;;;25.18;31.87
77212;BME280;66206;0.000;0.000;2023-09-19T07:42:06;97690.70;;;25.10;31.99
77212;BME280;66206;0.000;0.000;2023-09-19T07:44:34;97691.08;;;25.39;31.80
77212;BME280;66206;0.000;0.000;2023-09-19T07:47:01;97696.07;;;25.60;31.40
77212;BME280;66206;0.000;0.000;2023-09-19T07:49:28;97696.80;;;25.44;30.99
77212;BME280;66206;0.000;0.000;2023-09-19T07:51:55;97693.90;;;25.03;31.41
77212;BME280;66206;0.000;0.000;2023-09-19T07:54:22;97691.30;;;25.56;30.75
77212;BME280;66206;0.000;0.000;2023-09-19T07:56:49;97695.37;;;25.09;31.03
77212;BME280;66206;0.000;0.000;2023-09-19T07:59:16;97698.66;;;25.31;30.76
77212;BME280;66206;0.000;0.000;2023-09-19T08:01:43;97698.10;;;25.34;30.66
77212;BME280;66206;0.000;0.000;2023-09-19T08:04:10;97698.82;;;25.27;30.45
77212;BME280;66206;0.000;0.000;2023-09-19T08:06:37;97706.83;;;25.24;30.21
77212;BME280;66206;0.000;0.000;2023-09-19T08:09:04;97708.67;;;25.15;29.85
77212;BME280;66206;0.000;0.000;2023-09-19T08:11:31;97712.11;;;25.31;29.67
77212;BME280;66206;0.000;0.000;2023-09-19T08:13:58;97713.99;;;25.53;29.47
77212;BME280;66206;0.000;0.000;2023-09-19T08:16:25;97716.50;;;25.28;29.70
77212;BME280;66206;0.000;0.000;2023-09-19T08:18:52;97718.97;;;25.31;29.68
77212;BME280;66206;0.000;0.000;2023-09-19T08:21:19;97724.34;;;25.42;29.89
77212;BME280;66206;0.000;0.000;2023-09-19T08:23:45;97725.75;;;25.79;29.60
77212;BME280;66206;0.000;0.000;2023-09-19T08:26:13;97730.05;;;25.69;29.63
77212;BME280;66206;0.000;0.000;2023-09-19T08:28:39;97734.05;;;25.53;29.91
77212;BME280;66206;0.000;0.000;2023-09-19T08:31:07;97735.95;;;25.82;29.77
77212;BME280;66206;0.000;0.000;2023-09-19T08:33:35;97739.28;;;25.50;30.18
77212;BME280;66206;0.000;0.000;2023-09-19T08:36:02;97737.53;;;25.25;30.49
77212;BME280;66206;0.000;0.000;2023-09-19T08:38:30;97735.52;;;25.54;30.28
77212;BME280;66206;0.000;0.000;2023-09-19T08:40:57;97734.13;;;25.04;30.85
77212;BME280;66206;0.000;0.000;2023-09-19T08:43:24;97736.73;;;25.28;30.59
77212;BME280;66206;0.000;0.000;2023-09-19T08:45:52;97741.53;;;25.65;30.22
77212;BME280;66206;0.000;0.000;2023-09-19T08:48:22;97736.80;;;25.39;30.57
77212;BME280;66206;0.000;0.000;2023-09-19T08:50:48;97748.01;;;25.43;30.43
77212;BME280;66206;0.000;0.000;2023-09-19T08:53:10;97750.12;;;25.49;30.48
77212;BME280;66206;0.000;0.000;2023-09-19T08:55:37;97744.28;;;25.28;30.61
77212;BME280;66206;0.000;0.000;2023-09-19T08:58:08;97747.20;;;25.21;30.61
77212;BME280;66206;0.000;0.000;2023-09-19T09:00:37;97747.51;;;25.64;30.14
77212;BME280;66206;0.000;0.000;2023-09-19T09:03:04;97755.20;;;25.75;29.96
77212;BME280;66206;0.000;0.000;2023-09-19T09:05:31;97752.46;;;25.58;30.07
77212;BME280;66206;0.000;0.000;2023-09-19T09:07:59;97752.59;;;25.39;30.02
77212;BME280;66206;0.000;0.000;2023-09-19T09:10:26;97757.92;;;25.36;30.47
77212;BME280;66206;0.000;0.000;2023-09-19T09:12:54;97756.06;;;24.88;30.66
77212;BME280;66206;0.000;0.000;2023-09-19T09:15:21;97755.72;;;25.30;30.13
77212;BME280;66206;0.000;0.000;2023-09-19T09:17:48;97758.12;;;25.34;30.11
77212;BME280;66206;0.000;0.000;2023-09-19T09:20:16;97758.83;;;25.40;30.24
77212;BME280;66206;0.000;0.000;2023-09-19T09:22:50;97755.98;;;25.42;30.16
77212;BME280;66206;0.000;0.000;2023-09-19T09:25:12;97760.70;;;25.29;30.25
77212;BME280;66206;0.000;0.000;2023-09-19T09:27:40;97768.54;;;25.39;30.30
77212;BME280;66206;0.000;0.000;2023-09-19T09:30:07;97774.43;;;25.61;30.11
77212;BME280;66206;0.000;0.000;2023-09-19T09:32:34;97778.75;;;25.74;29.80
77212;BME280;66206;0.000;0.000;2023-09-19T09:35:02;97778.38;;;25.57;29.95
77212;BME280;66206;0.000;0.000;2023-09-19T09:37:28;97785.67;;;25.63;29.59
77212;BME280;66206;0.000;0.000;2023-09-19T09:39:56;97788.85;;;25.46;29.70
77212;BME280;66206;0.000;0.000;2023-09-19T09:42:31;97786.56;;;25.22;29.95
77212;BME280;66206;0.000;0.000;2023-09-19T09:44:57;97790.25;;;25.73;29.43
77212;BME280;66206;0.000;0.000;2023-09-19T09:47:41;97792.79;;;25.54;29.26
77212;BME280;66206;0.000;0.000;2023-09-19T09:49:52;97789.66;;;25.32;29.57
77212;BME280;66206;0.000;0.000;2023-09-19T09:52:19;97789.11;;;25.65;29.00
77212;BME280;66206;0.000;0.000;2023-09-19T09:54:58;97787.47;;;25.77;28.77
77212;BME280;66206;0.000;0.000;2023-09-19T09:57:14;97788.34;;;25.54;28.98
77212;BME280;66206;0.000;0.000;2023-09-19T09:59:49;97788.25;;;25.61;28.98
77212;BME280;66206;0.000;0.000;2023-09-19T10:02:12;97790.67;;;25.89;28.84
77212;BME280;66206;0.000;0.000;2023-09-19T10:04:39;97791.32;;;25.59;29.07
77212;BME280;66206;0.000;0.000;2023-09-19T10:07:06;97790.24;;;25.55;29.17
77212;BME280;66206;0.000;0.000;2023-09-19T10:09:44;97790.26;;;25.46;29.06
77212;BME280;66206;0.000;0.000;2023-09-19T10:12:02;97785.50;;;26.06;28.48
77212;BME280;66206;0.000;0.000;2023-09-19T10:14:30;97781.26;;;25.77;28.75
77212;BME280;66206;0.000;0.000;2023-09-19T10:16:58;97781.75;;;25.49;29.07
77212;BME280;66206;0.000;0.000;2023-09-19T10:19:27;97777.89;;;25.47;28.97
77212;BME280;66206;0.000;0.000;2023-09-19T10:21:50;97778.93;;;26.10;28.35
77212;BME280;66206;0.000;0.000;2023-09-19T10:24:20;97780.26;;;25.95;28.64
77212;BME280;66206;0.000;0.000;2023-09-19T10:26:48;97774.44;;;26.80;27.85
77212;BME280;66206;0.000;0.000;2023-09-19T10:29:16;97774.90;;;26.42;28.17
77212;BME280;66206;0.000;0.000;2023-09-19T10:31:44;97772.27;;;25.73;28.95
77212;BME280;66206;0.000;0.000;2023-09-19T10:34:14;97776.27;;;26.45;28.29
77212;BME280;66206;0.000;0.000;2023-09-19T10:36:44;97777.87;;;25.84;28.80
77212;BME280;66206;0.000;0.000;2023-09-19T10:39:11;97781.58;;;26.03;28.56
77212;BME280;66206;0.000;0.000;2023-09-19T10:41:40;97782.04;;;25.88;28.68
77212;BME280;66206;0.000;0.000;2023-09-19T10:44:07;97777.81;;;25.86;28.88
77212;BME280;66206;0.000;0.000;2023-09-19T10:46:34;97785.70;;;26.01;29.01
77212;BME280;66206;0.000;0.000;2023-09-19T10:49:03;97783.03;;;26.14;28.53
77212;BME280;66206;0.000;0.000;2023-09-19T10:51:31;97778.34;;;26.72;27.98
77212;BME280;66206;0.000;0.000;2023-09-19T10:54:01;97784.23;;;26.03;28.84
77212;BME280;66206;0.000;0.000;2023-09-19T10:56:27;97786.06;;;26.24;29.11
77212;BME280;66206;0.000;0.000;2023-09-19T10:59:05;97781.03;;;26.18;29.00
77212;BME280;66206;0.000;0.000;2023-09-19T11:01:21;97784.24;;;26.17;28.81
77212;BME280;66206;0.000;0.000;2023-09-19T11:03:48;97781.82;;;26.13;29.14
77212;BME280;66206;0.000;0.000;2023-09-19T11:06:16;97780.39;;;26.23;28.95
77212;BME280;66206;0.000;0.000;2023-09-19T11:08:51;97774.86;;;26.38;28.66
77212;BME280;66206;0.000;0.000;2023-09-19T11:11:35;97770.48;;;26.60;28.47
77212;BME280;66206;0.000;0.000;2023-09-19T11:13:39;97766.99;;;26.71;28.26
77212;BME280;66206;0.000;0.000;2023-09-19T11:16:06;97776.02;;;26.27;28.51
77212;BME280;66206;0.000;0.000;2023-09-19T11:19:05;97770.37;;;26.55;27.80
77212;BME280;66206;0.000;0.000;2023-09-19T11:21:37;97787.87;;;26.44;27.84
77212;BME280;66206;0.000;0.000;2023-09-19T11:23:28;97778.31;;;26.23;28.13
77212;BME280;66206;0.000;0.000;2023-09-19T11:25:55;97775.48;;;26.14;28.02
77212;BME280;66206;0.000;0.000;2023-09-19T11:28:30;97769.41;;;26.30;28.05
77212;BME280;66206;0.000;0.000;2023-09-19T11:30:52;97765.28;;;26.28;28.10
77212;BME280;66206;0.000;0.000;2023-09-19T11:33:19;97774.21;;;26.52;28.15
77212;BME280;66206;0.000;0.000;2023-09-19T11:36:02;97771.43;;;26.34;28.30
77212;BME280;66206;0.000;0.000;2023-09-19T11:38:14;97762.95;;;26.18;28.40
77212;BME280;66206;0.000;0.000;2023-09-19T11:40:45;97768.33;;;26.36;27.85
77212;BME280;66206;0.000;0.000;2023-09-19T11:43:40;97771.47;;;26.55;27.59
77212;BME280;66206;0.000;0.000;2023-09-19T11:46:08;97766.84;;;26.48;27.79
77212;BME280;66206;0.000;0.000;2023-09-19T11:48:04;97764.77;;;26.32;27.98
77212;BME280;66206;0.000;0.000;2023-09-19T11:50:32;97764.36;;;26.20;28.24
77212;BME280;66206;0.000;0.000;2023-09-19T11:52:59;97767.61;;;26.09;29.13
77212;BME280;66206;0.000;0.000;2023-09-19T11:55:27;97765.44;;;26.05;29.13
77212;BME280;66206;0.000;0.000;2023-09-19T11:57:55;97768.45;;;26.08;29.30
77212;BME280;66206;0.000;0.000;2023-09-19T12:00:22;97767.95;;;25.96;29.38
77212;BME280;66206;0.000;0.000;2023-09-19T12:02:49;97763.92;;;26.06;29.32
77212;BME280;66206;0.000;0.000;2023-09-19T12:05:16;97765.46;;;26.30;29.13
77212;BME280;66206;0.000;0.000;2023-09-19T12:07:44;97768.22;;;26.14;29.46
77212;BME280;66206;0.000;0.000;2023-09-19T12:10:11;97760.97;;;25.86;29.71
77212;BME280;66206;0.000;0.000;2023-09-19T12:12:38;97763.47;;;26.32;29.02
77212;BME280;66206;0.000;0.000;2023-09-19T12:15:05;97762.57;;;26.19;29.21
77212;BME280;66206;0.000;0.000;2023-09-19T12:17:35;97761.34;;;26.29;29.06
77212;BME280;66206;0.000;0.000;2023-09-19T12:20:02;97765.50;;;26.14;29.15
77212;BME280;66206;0.000;0.000;2023-09-19T12:22:38;97761.07;;;26.22;28.83
77212;BME280;66206;0.000;0.000;2023-09-19T12:25:02;97768.79;;;26.42;28.76
77212;BME280;66206;0.000;0.000;2023-09-19T12:27:21;97764.84;;;26.28;28.81
77212;BME280;66206;0.000;0.000;2023-09-19T12:29:49;97758.72;;;26.42;28.72
77212;BME280;66206;0.000;0.000;2023-09-19T12:32:16;97757.56;;;26.44;28.73
77212;BME280;66206;0.000;0.000;2023-09-19T12:34:49;97749.03;;;26.78;28.42
77212;BME280;66206;0.000;0.000;2023-09-19T12:37:12;97758.16;;;26.55;28.37
77212;BME280;66206;0.000;0.000;2023-09-19T12:39:39;97761.66;;;25.71;29.00
77212;BME280;66206;0.000;0.000;2023-09-19T12:42:07;97759.93;;;26.62;28.06
77212;BME280;66206;0.000;0.000;2023-09-19T12:44:35;97765.14;;;26.07;28.55
77212;BME280;66206;0.000;0.000;2023-09-19T12:47:08;97756.88;;;25.96;28.53
77212;BME280;66206;0.000;0.000;2023-09-19T12:49:29;97761.58;;;26.38;27.86
77212;BME280;66206;0.000;0.000;2023-09-19T12:51:56;97753.89;;;26.51;27.82
77212;BME280;66206;0.000;0.000;2023-09-19T12:54:23;97751.64;;;26.12;28.31
77212;BME280;66206;0.000;0.000;2023-09-19T12:56:50;97751.20;;;26.18;28.19
77212;BME280;66206;0.000;0.000;2023-09-19T12:59:17;97746.91;;;26.04;28.15
77212;BME280;66206;0.000;0.000;2023-09-19T13:01:45;97748.43;;;25.96;28.05
77212;BME280;66206;0.000;0.000;2023-09-19T13:04:12;97750.55;;;26.53;27.62
77212;BME280;66206;0.000;0.000;2023-09-19T13:06:40;97746.31;;;26.75;27.45
77212;BME280;66206;0.000;0.000;2023-09-19T13:09:08;97747.30;;;26.38;28.02